Time;durP1;ratioP1;P1;durP2;ratioP2;P2;SDS_P1;SDS_P2;PMS_P1;PMS_P2;Temp;Humidity;BMP_temperature;BMP_pressure;BME280_temperature;BME280_humidity;BME280_pressure;Samples;Min_cycle;Max_cycle;Signal;HPM_P1;HPM_P2
2022/01/05 00:00:08;;;;;;;8.83;1.40;;;;;;;;;;4953526;28;20218;-60
2022/01/05 00:02:33;;;;;;;10.10;1.47;;;;;;;;;;4973442;28;20206;-60
2022/01/05 00:04:58;;;;;;;8.43;1.60;;;;;;;;;;4973941;28;20241;-60
2022/01/05 00:07:24;;;;;;;8.83;1.70;;;;;;;;;;4972668;28;20224;-60
2022/01/05 00:09:49;;;;;;;6.33;1.30;;;;;;;;;;4973880;28;20232;-60
2022/01/05 00:12:14;;;;;;;13.40;1.77;;;;;;;;;;4973667;28;20209;-60
2022/01/05 00:14:39;;;;;;;13.53;1.80;;;;;;;;;;4987949;28;20209;-60
2022/01/05 00:17:05;;;;;;;8.60;1.40;;;;;;;;;;4959557;28;20222;-60
2022/01/05 00:19:32;;;;;;;7.90;2.00;;;;;;;;;;4954469;28;20221;-60
2022/01/05 00:21:57;;;;;;;7.87;1.57;;;;;;;;;;4953911;28;20691;-60
2022/01/05 00:24:22;;;;;;;8.83;1.47;;;;;;;;;;4953898;28;20229;-60
2022/01/05 00:26:47;;;;;;;12.03;2.10;;;;;;;;;;4954456;28;20700;-60
2022/01/05 00:29:13;;;;;;;9.30;1.70;;;;;;;;;;4953119;28;20334;-60
2022/01/05 00:31:38;;;;;;;9.57;1.67;;;;;;;;;;4954231;28;20225;-60
2022/01/05 00:34:03;;;;;;;7.10;1.83;;;;;;;;;;4953282;28;20222;-60
2022/01/05 00:36:29;;;;;;;10.77;1.80;;;;;;;;;;4954272;28;20211;-60
2022/01/05 00:38:54;;;;;;;7.43;1.60;;;;;;;;;;4954316;28;20225;-60
2022/01/05 00:41:19;;;;;;;11.87;1.90;;;;;;;;;;4952959;28;20246;-60
2022/01/05 00:43:44;;;;;;;8.67;1.70;;;;;;;;;;4954205;28;20217;-60
2022/01/05 00:46:10;;;;;;;11.77;1.57;;;;;;;;;;4954055;28;20218;-60
2022/01/05 00:48:35;;;;;;;13.33;2.00;;;;;;;;;;4953233;28;20697;-60
2022/01/05 00:51:02;;;;;;;10.40;2.20;;;;;;;;;;4953532;28;20288;-61
2022/01/05 00:53:27;;;;;;;12.43;1.60;;;;;;;;;;4954229;28;20211;-60
2022/01/05 00:55:53;;;;;;;12.00;1.97;;;;;;;;;;4953179;28;20225;-60
2022/01/05 00:58:18;;;;;;;8.90;1.77;;;;;;;;;;4953560;28;20218;-60
2022/01/05 01:00:43;;;;;;;8.30;1.57;;;;;;;;;;4954105;28;20217;-60
2022/01/05 01:03:08;;;;;;;11.10;1.63;;;;;;;;;;4952592;28;20225;-60
2022/01/05 01:05:34;;;;;;;9.67;1.70;;;;;;;;;;4954135;28;20305;-60
2022/01/05 01:07:59;;;;;;;10.27;1.50;;;;;;;;;;4953869;28;20222;-60
2022/01/05 01:10:24;;;;;;;12.90;1.80;;;;;;;;;;4952629;28;20218;-60
2022/01/05 01:12:50;;;;;;;7.77;1.70;;;;;;;;;;4954357;28;20270;-60
2022/01/05 01:15:15;;;;;;;11.23;1.77;;;;;;;;;;4957276;28;20227;-60
2022/01/05 01:17:40;;;;;;;9.93;1.80;;;;;;;;;;4938176;28;20215;-60
2022/01/05 01:20:06;;;;;;;13.03;1.70;;;;;;;;;;4938284;29;20227;-60
2022/01/05 01:22:32;;;;;;;9.97;1.83;;;;;;;;;;4948206;28;20214;-60
2022/01/05 01:24:58;;;;;;;9.97;1.70;;;;;;;;;;4956698;28;20286;-60
2022/01/05 01:27:23;;;;;;;9.83;1.90;;;;;;;;;;4971775;28;20289;-60
2022/01/05 01:29:48;;;;;;;13.07;2.30;;;;;;;;;;4957463;28;20246;-60
2022/01/05 01:32:13;;;;;;;10.13;1.77;;;;;;;;;;4956269;28;20301;-60
2022/01/05 01:34:39;;;;;;;9.30;2.00;;;;;;;;;;4957300;28;20697;-60
2022/01/05 01:37:04;;;;;;;10.90;1.90;;;;;;;;;;4956870;28;20361;-60
2022/01/05 01:39:29;;;;;;;6.97;1.67;;;;;;;;;;4956403;28;20218;-60
2022/01/05 01:41:54;;;;;;;12.15;1.88;;;;;;;;;;4957384;28;20457;-60
2022/01/05 01:44:20;;;;;;;8.40;1.73;;;;;;;;;;4956144;28;20222;-60
2022/01/05 01:46:45;;;;;;;13.00;1.73;;;;;;;;;;4957094;28;20297;-60
2022/01/05 01:49:10;;;;;;;9.47;1.70;;;;;;;;;;4956386;28;20597;-60
2022/01/05 01:51:36;;;;;;;9.20;1.70;;;;;;;;;;4956243;28;20214;-60
2022/01/05 01:54:01;;;;;;;12.20;1.77;;;;;;;;;;4956534;28;20669;-61
2022/01/05 01:56:26;;;;;;;10.30;1.90;;;;;;;;;;4971464;28;20218;-60
2022/01/05 01:58:52;;;;;;;10.37;1.90;;;;;;;;;;4971010;28;20215;-60
2022/01/05 02:01:17;;;;;;;10.80;1.80;;;;;;;;;;4980314;28;20217;-60
2022/01/05 02:03:42;;;;;;;8.33;1.80;;;;;;;;;;4975989;28;20313;-60
2022/01/05 02:06:07;;;;;;;8.67;1.57;;;;;;;;;;4974754;28;20276;-60
2022/01/05 02:08:33;;;;;;;7.97;1.73;;;;;;;;;;4975878;28;20304;-60
2022/01/05 02:10:58;;;;;;;12.60;1.90;;;;;;;;;;4976201;28;20217;-60
2022/01/05 02:13:24;;;;;;;9.00;1.67;;;;;;;;;;4974686;28;20300;-60
2022/01/05 02:15:49;;;;;;;12.60;2.20;;;;;;;;;;4972367;28;20215;-60
2022/01/05 02:18:58;;;;;;;10.67;1.87;;;;;;;;;;4955819;28;20233;-59
2022/01/05 02:21:07;;;;;;;10.17;1.90;;;;;;;;;;4955174;28;20305;-59
2022/01/05 02:23:33;;;;;;;11.73;1.93;;;;;;;;;;4956128;28;20290;-59
2022/01/05 02:25:58;;;;;;;15.17;2.30;;;;;;;;;;4955085;28;20224;-59
2022/01/05 02:28:23;;;;;;;9.23;2.17;;;;;;;;;;4954953;28;20225;-59
2022/01/05 02:30:50;;;;;;;12.03;1.90;;;;;;;;;;4956273;28;20578;-59
2022/01/05 02:33:16;;;;;;;10.10;1.77;;;;;;;;;;4955630;28;20218;-59
2022/01/05 02:35:41;;;;;;;12.30;2.07;;;;;;;;;;4955308;28;20221;-59
2022/01/05 02:38:07;;;;;;;11.17;2.00;;;;;;;;;;4955675;28;20225;-59
2022/01/05 02:40:32;;;;;;;10.93;1.83;;;;;;;;;;4956056;28;20673;-59
2022/01/05 02:42:57;;;;;;;11.47;2.13;;;;;;;;;;4955310;28;20221;-59
2022/01/05 02:45:23;;;;;;;12.50;2.00;;;;;;;;;;4955705;28;20606;-59
2022/01/05 02:47:48;;;;;;;11.80;1.97;;;;;;;;;;4954821;28;20222;-59
2022/01/05 02:50:14;;;;;;;15.07;2.80;;;;;;;;;;4969977;28;20234;-59
2022/01/05 02:52:39;;;;;;;9.10;1.80;;;;;;;;;;4970729;28;20705;-59
2022/01/05 02:55:04;;;;;;;12.47;2.10;;;;;;;;;;4954694;28;20544;-59
2022/01/05 02:57:30;;;;;;;15.93;2.67;;;;;;;;;;4955755;28;20301;-59
2022/01/05 02:59:55;;;;;;;11.63;2.17;;;;;;;;;;4955784;28;20601;-59
2022/01/05 03:02:20;;;;;;;13.63;2.10;;;;;;;;;;4954305;28;20666;-59
2022/01/05 03:04:46;;;;;;;11.90;2.13;;;;;;;;;;4955590;28;20214;-59
2022/01/05 03:07:13;;;;;;;16.63;2.33;;;;;;;;;;4955177;28;20219;-59
2022/01/05 03:09:38;;;;;;;11.77;1.90;;;;;;;;;;4954540;28;20226;-59
2022/01/05 03:12:03;;;;;;;13.60;2.20;;;;;;;;;;4955210;28;20497;-59
2022/01/05 03:14:29;;;;;;;9.10;1.87;;;;;;;;;;4955386;28;20297;-59
2022/01/05 03:16:54;;;;;;;14.37;2.20;;;;;;;;;;4942551;28;20712;-59
2022/01/05 03:19:19;;;;;;;9.87;1.60;;;;;;;;;;4935696;29;20298;-59
2022/01/05 03:21:45;;;;;;;14.17;1.90;;;;;;;;;;4939656;29;20447;-59
2022/01/05 03:24:10;;;;;;;11.23;2.37;;;;;;;;;;4954242;28;20214;-59
2022/01/05 03:26:35;;;;;;;9.37;2.53;;;;;;;;;;4955332;28;20261;-59
2022/01/05 03:29:01;;;;;;;12.97;1.90;;;;;;;;;;4954423;28;20233;-59
2022/01/05 03:31:26;;;;;;;10.20;2.13;;;;;;;;;;4954251;28;20218;-59
2022/01/05 03:33:51;;;;;;;9.87;1.70;;;;;;;;;;4955016;28;20218;-59
2022/01/05 03:36:16;;;;;;;9.53;2.10;;;;;;;;;;4954232;28;20210;-59
2022/01/05 03:38:42;;;;;;;12.73;2.40;;;;;;;;;;4954128;28;20221;-59
2022/01/05 03:41:07;;;;;;;9.60;2.13;;;;;;;;;;4954802;28;20246;-60
2022/01/05 03:43:32;;;;;;;12.63;2.03;;;;;;;;;;4955052;28;20206;-59
2022/01/05 03:45:57;;;;;;;17.57;2.70;;;;;;;;;;4954130;28;20690;-59
2022/01/05 03:48:23;;;;;;;16.70;2.60;;;;;;;;;;4954232;28;20307;-59
2022/01/05 03:50:48;;;;;;;17.67;2.90;;;;;;;;;;4954586;28;20226;-59
2022/01/05 03:53:13;;;;;;;14.77;3.00;;;;;;;;;;4953784;28;20266;-59
2022/01/05 03:55:40;;;;;;;9.43;2.20;;;;;;;;;;4954811;28;20209;-59
2022/01/05 03:58:05;;;;;;;14.07;2.50;;;;;;;;;;4953497;28;20293;-59
2022/01/05 04:00:31;;;;;;;10.80;2.20;;;;;;;;;;4957516;28;20620;-59
2022/01/05 04:02:57;;;;;;;11.80;2.00;;;;;;;;;;4974043;28;20210;-59
2022/01/05 04:05:22;;;;;;;14.73;2.20;;;;;;;;;;4972799;28;20220;-59
2022/01/05 04:07:49;;;;;;;10.60;2.10;;;;;;;;;;4973491;28;20212;-59
2022/01/05 04:10:15;;;;;;;9.47;2.33;;;;;;;;;;4988248;28;20546;-59
2022/01/05 04:12:40;;;;;;;12.77;2.37;;;;;;;;;;4973173;28;20666;-59
2022/01/05 04:15:05;;;;;;;11.53;2.40;;;;;;;;;;4973311;28;20214;-59
2022/01/05 04:17:31;;;;;;;18.10;2.57;;;;;;;;;;4956519;28;20612;-59
2022/01/05 04:19:56;;;;;;;12.70;2.33;;;;;;;;;;4953537;28;20210;-59
2022/01/05 04:22:21;;;;;;;12.50;2.10;;;;;;;;;;4953991;28;20222;-59
2022/01/05 04:24:46;;;;;;;12.53;2.50;;;;;;;;;;4954477;28;20261;-59
2022/01/05 04:27:12;;;;;;;17.80;2.30;;;;;;;;;;4953359;28;20241;-59
2022/01/05 04:29:37;;;;;;;11.33;2.17;;;;;;;;;;4953997;28;20347;-59
2022/01/05 04:32:02;;;;;;;12.03;2.30;;;;;;;;;;4954219;28;20250;-60
2022/01/05 04:34:28;;;;;;;13.37;2.33;;;;;;;;;;4953667;28;20269;-59
2022/01/05 04:36:53;;;;;;;11.60;2.87;;;;;;;;;;4954099;28;20210;-59
2022/01/05 04:39:18;;;;;;;15.10;2.50;;;;;;;;;;4953609;28;20221;-59
2022/01/05 04:41:43;;;;;;;13.03;2.60;;;;;;;;;;4953350;28;20218;-59
2022/01/05 04:44:09;;;;;;;13.97;2.40;;;;;;;;;;4953762;28;20210;-59
2022/01/05 04:46:34;;;;;;;15.53;2.30;;;;;;;;;;4954100;28;20214;-60
2022/01/05 04:48:59;;;;;;;14.83;2.80;;;;;;;;;;4955024;28;20229;-59
2022/01/05 04:51:25;;;;;;;16.03;2.40;;;;;;;;;;4957669;28;20297;-59
2022/01/05 04:53:51;;;;;;;12.27;2.33;;;;;;;;;;4957807;28;20217;-59
2022/01/05 04:56:16;;;;;;;19.03;2.70;;;;;;;;;;4956762;28;20222;-59
2022/01/05 04:58:41;;;;;;;18.20;2.37;;;;;;;;;;4957895;28;20309;-59
2022/01/05 05:01:07;;;;;;;13.17;2.30;;;;;;;;;;4957220;28;20218;-59
2022/01/05 05:03:32;;;;;;;14.17;2.17;;;;;;;;;;4957116;28;20626;-59
2022/01/05 05:05:57;;;;;;;11.53;2.63;;;;;;;;;;4957885;28;20234;-59
2022/01/05 05:08:22;;;;;;;16.60;2.40;;;;;;;;;;4956382;28;20624;-59
2022/01/05 05:10:48;;;;;;;14.20;2.20;;;;;;;;;;4957575;28;20221;-59
2022/01/05 05:13:13;;;;;;;20.47;2.53;;;;;;;;;;4957257;28;20219;-60
2022/01/05 05:15:39;;;;;;;11.70;2.50;;;;;;;;;;4954702;28;20634;-59
2022/01/05 05:18:04;;;;;;;14.90;2.60;;;;;;;;;;4937800;29;20215;-59
2022/01/05 05:20:29;;;;;;;10.40;2.40;;;;;;;;;;4953017;29;20647;-59
2022/01/05 05:22:55;;;;;;;12.10;2.20;;;;;;;;;;4950231;28;20628;-60
2022/01/05 05:25:20;;;;;;;13.30;2.53;;;;;;;;;;4957024;28;20265;-60
2022/01/05 05:27:45;;;;;;;14.03;2.33;;;;;;;;;;4957346;28;20341;-60
2022/01/05 05:30:11;;;;;;;16.90;2.83;;;;;;;;;;4956160;28;20214;-60
2022/01/05 05:32:36;;;;;;;15.40;2.53;;;;;;;;;;4957518;28;20241;-60
2022/01/05 05:35:01;;;;;;;13.33;2.40;;;;;;;;;;4957191;28;20215;-60
2022/01/05 05:37:27;;;;;;;12.30;2.63;;;;;;;;;;4956468;28;20708;-59
2022/01/05 05:39:52;;;;;;;13.53;2.47;;;;;;;;;;4956931;28;20207;-60
2022/01/05 05:42:17;;;;;;;19.53;3.03;;;;;;;;;;4956866;28;20214;-60
2022/01/05 05:44:42;;;;;;;17.87;2.77;;;;;;;;;;4956497;28;20225;-60
2022/01/05 05:47:08;;;;;;;9.47;1.97;;;;;;;;;;4956566;28;20218;-60
2022/01/05 05:49:33;;;;;;;16.07;2.47;;;;;;;;;;4956879;28;20572;-60
2022/01/05 05:51:58;;;;;;;10.80;2.17;;;;;;;;;;4956104;28;20705;-60
2022/01/05 05:54:23;;;;;;;14.93;2.40;;;;;;;;;;4956511;28;20211;-60
2022/01/05 05:56:49;;;;;;;15.23;2.53;;;;;;;;;;4956826;28;20673;-60
2022/01/05 05:59:14;;;;;;;14.40;2.67;;;;;;;;;;4955390;28;20266;-60
2022/01/05 06:01:39;;;;;;;12.43;2.57;;;;;;;;;;4956773;28;20572;-60
2022/01/05 06:04:05;;;;;;;13.70;2.57;;;;;;;;;;4956748;28;20214;-60
2022/01/05 06:06:30;;;;;;;13.23;2.40;;;;;;;;;;4956275;28;20571;-60
2022/01/05 06:08:55;;;;;;;17.47;3.03;;;;;;;;;;4956403;28;20265;-60
2022/01/05 06:11:21;;;;;;;11.33;2.77;;;;;;;;;;4956386;28;20241;-60
2022/01/05 06:13:46;;;;;;;16.60;2.97;;;;;;;;;;4955927;28;20225;-60
2022/01/05 06:16:11;;;;;;;16.17;2.70;;;;;;;;;;4949816;28;20302;-60
2022/01/05 06:18:37;;;;;;;18.83;2.73;;;;;;;;;;4951612;29;20572;-60
2022/01/05 06:21:02;;;;;;;13.67;2.83;;;;;;;;;;4936520;29;20211;-60
2022/01/05 06:23:27;;;;;;;14.43;2.87;;;;;;;;;;4954355;28;20318;-60
2022/01/05 06:25:52;;;;;;;15.53;2.63;;;;;;;;;;4955736;28;20676;-60
2022/01/05 06:28:18;;;;;;;12.57;2.43;;;;;;;;;;4955839;28;20768;-60
2022/01/05 06:30:43;;;;;;;17.37;2.70;;;;;;;;;;4956609;28;20213;-60
2022/01/05 06:33:08;;;;;;;13.73;2.43;;;;;;;;;;4955315;28;20302;-60
2022/01/05 06:35:34;;;;;;;13.60;2.50;;;;;;;;;;4956590;28;20215;-60
2022/01/05 06:37:59;;;;;;;16.80;3.20;;;;;;;;;;4956011;28;20217;-60
2022/01/05 06:40:24;;;;;;;12.53;2.40;;;;;;;;;;4955116;28;20214;-60
2022/01/05 06:42:50;;;;;;;17.60;3.07;;;;;;;;;;4955966;28;20217;-60
2022/01/05 06:45:15;;;;;;;17.30;2.60;;;;;;;;;;4955734;28;20301;-60
2022/01/05 06:47:40;;;;;;;17.70;3.00;;;;;;;;;;4955169;28;20671;-60
2022/01/05 06:50:06;;;;;;;14.47;2.40;;;;;;;;;;4955296;28;20334;-60
2022/01/05 06:52:31;;;;;;;16.43;2.37;;;;;;;;;;4956063;28;20277;-60
2022/01/05 06:54:57;;;;;;;15.17;2.27;;;;;;;;;;4954872;28;20249;-60
2022/01/05 06:57:22;;;;;;;14.90;2.77;;;;;;;;;;4955487;28;20301;-60
2022/01/05 06:59:47;;;;;;;12.67;2.30;;;;;;;;;;4955775;28;20301;-60
2022/01/05 07:02:13;;;;;;;12.93;2.13;;;;;;;;;;4950127;28;20222;-60
2022/01/05 07:04:38;;;;;;;14.87;2.40;;;;;;;;;;4936577;28;20214;-60
2022/01/05 07:07:03;;;;;;;14.97;2.47;;;;;;;;;;4936268;28;20222;-60
2022/01/05 07:09:29;;;;;;;19.40;2.83;;;;;;;;;;4935287;28;20957;-60
2022/01/05 07:11:54;;;;;;;16.37;2.73;;;;;;;;;;4935653;28;20211;-59
2022/01/05 07:14:19;;;;;;;16.10;3.10;;;;;;;;;;4935884;28;20678;-59
2022/01/05 07:16:44;;;;;;;12.73;2.63;;;;;;;;;;4935790;28;20211;-60
2022/01/05 07:19:10;;;;;;;17.40;2.70;;;;;;;;;;4935741;29;20226;-59
2022/01/05 07:21:35;;;;;;;12.13;2.50;;;;;;;;;;4938733;29;20279;-59
2022/01/05 07:24:01;;;;;;;11.93;2.50;;;;;;;;;;4954407;28;20218;-59
2022/01/05 07:26:27;;;;;;;14.70;3.07;;;;;;;;;;4955546;28;20219;-61
2022/01/05 07:28:53;;;;;;;14.93;2.53;;;;;;;;;;4974215;28;20276;-59
2022/01/05 07:31:18;;;;;;;18.13;2.97;;;;;;;;;;4973643;28;20623;-59
2022/01/05 07:33:43;;;;;;;17.93;3.30;;;;;;;;;;4973001;28;20672;-58
2022/01/05 07:36:08;;;;;;;13.80;2.27;;;;;;;;;;4973090;28;20205;-59
2022/01/05 07:38:34;;;;;;;14.33;2.87;;;;;;;;;;4974435;28;20301;-58
2022/01/05 07:40:59;;;;;;;13.90;2.60;;;;;;;;;;4972443;28;20268;-59
2022/01/05 07:43:24;;;;;;;13.20;2.90;;;;;;;;;;4968871;28;20245;-59
2022/01/05 07:45:49;;;;;;;14.90;3.10;;;;;;;;;;4974036;28;20264;-59
2022/01/05 07:48:15;;;;;;;17.73;2.57;;;;;;;;;;4973523;28;20232;-59
2022/01/05 07:50:40;;;;;;;19.17;2.67;;;;;;;;;;4973246;28;20241;-58
2022/01/05 07:53:05;;;;;;;14.33;3.50;;;;;;;;;;4973635;28;20947;-59
2022/01/05 07:55:31;;;;;;;15.70;2.60;;;;;;;;;;4973750;28;20237;-58
2022/01/05 07:57:57;;;;;;;12.97;2.37;;;;;;;;;;4973010;28;20214;-59
2022/01/05 08:00:22;;;;;;;15.87;2.63;;;;;;;;;;4971487;28;20214;-59
2022/01/05 08:02:48;;;;;;;17.47;2.53;;;;;;;;;;4968897;28;20278;-60
2022/01/05 08:05:13;;;;;;;11.50;2.10;;;;;;;;;;4953405;28;20218;-59
2022/01/05 08:07:38;;;;;;;12.93;2.93;;;;;;;;;;4954711;28;20293;-59
2022/01/05 08:10:04;;;;;;;16.50;2.67;;;;;;;;;;4953953;28;20270;-60
2022/01/05 08:12:29;;;;;;;19.03;3.07;;;;;;;;;;4953690;28;20207;-59
2022/01/05 08:14:54;;;;;;;16.40;3.00;;;;;;;;;;4954325;28;20206;-60
2022/01/05 08:17:20;;;;;;;15.67;2.70;;;;;;;;;;4938558;28;20286;-61
2022/01/05 08:19:45;;;;;;;16.47;2.70;;;;;;;;;;4948998;28;20206;-61
2022/01/05 08:22:10;;;;;;;13.60;2.50;;;;;;;;;;4950172;28;20209;-62
2022/01/05 08:24:36;;;;;;;21.10;3.40;;;;;;;;;;4954305;28;20222;-62
2022/01/05 08:27:01;;;;;;;15.67;2.80;;;;;;;;;;4953080;28;20262;-61
2022/01/05 08:29:26;;;;;;;15.63;2.60;;;;;;;;;;4954094;28;20222;-61
2022/01/05 08:31:52;;;;;;;14.73;2.70;;;;;;;;;;4948863;28;20321;-61
2022/01/05 08:34:17;;;;;;;18.77;2.77;;;;;;;;;;4952750;28;20706;-61
2022/01/05 08:36:42;;;;;;;13.53;2.30;;;;;;;;;;4954422;28;20266;-59
2022/01/05 08:39:07;;;;;;;17.60;2.50;;;;;;;;;;4953799;28;20214;-61
2022/01/05 08:41:33;;;;;;;18.30;3.10;;;;;;;;;;4953446;28;20301;-60
2022/01/05 08:43:58;;;;;;;20.73;3.03;;;;;;;;;;4954163;28;20207;-60
2022/01/05 08:46:23;;;;;;;15.70;2.77;;;;;;;;;;4953077;28;20370;-61
2022/01/05 08:48:49;;;;;;;19.23;2.87;;;;;;;;;;4953335;28;20227;-61
2022/01/05 08:51:14;;;;;;;13.60;2.80;;;;;;;;;;4953516;28;20219;-61
2022/01/05 08:53:39;;;;;;;17.17;2.90;;;;;;;;;;4953461;28;20459;-61
2022/01/05 08:56:04;;;;;;;14.40;3.10;;;;;;;;;;4953618;28;20237;-62
2022/01/05 08:58:30;;;;;;;19.47;3.60;;;;;;;;;;4953614;28;20214;-61
2022/01/05 09:00:55;;;;;;;19.93;2.73;;;;;;;;;;4953206;28;20569;-60
2022/01/05 09:03:20;;;;;;;14.50;2.53;;;;;;;;;;4953180;28;20215;-60
2022/01/05 09:05:46;;;;;;;19.47;3.00;;;;;;;;;;4954083;28;20215;-61
2022/01/05 09:08:11;;;;;;;17.60;2.83;;;;;;;;;;4952664;28;20219;-62
2022/01/05 09:10:37;;;;;;;17.80;3.00;;;;;;;;;;4954076;28;20223;-62
2022/01/05 09:13:02;;;;;;;18.30;2.93;;;;;;;;;;4951368;28;20222;-62
2022/01/05 09:15:27;;;;;;;12.43;2.53;;;;;;;;;;4953266;28;20230;-62
2022/01/05 09:17:53;;;;;;;14.83;3.33;;;;;;;;;;4951758;28;20686;-62
2022/01/05 09:20:18;;;;;;;13.93;2.40;;;;;;;;;;4953402;28;20629;-61
2022/01/05 09:22:43;;;;;;;15.47;3.00;;;;;;;;;;4953159;28;20233;-62
2022/01/05 09:25:10;;;;;;;16.73;4.23;;;;;;;;;;4953131;28;20689;-61
2022/01/05 09:27:35;;;;;;;13.87;2.50;;;;;;;;;;4953942;28;20293;-61
2022/01/05 09:30:01;;;;;;;14.67;3.30;;;;;;;;;;4967758;28;20297;-61
2022/01/05 09:32:26;;;;;;;15.13;2.97;;;;;;;;;;4953579;28;20322;-62
2022/01/05 09:34:51;;;;;;;18.03;4.57;;;;;;;;;;4955412;28;20203;-62
2022/01/05 09:37:27;;;;;;;20.73;4.07;;;;;;;;;;4956061;28;20224;-62
2022/01/05 09:42:37;;;;;;;22.70;4.47;;;;;;;;;;4937045;28;20294;-62
2022/01/05 09:45:06;;;;;;;16.43;4.17;;;;;;;;;;4945778;28;20293;-62
2022/01/05 09:47:35;;;;;;;22.37;8.17;;;;;;;;;;4969675;28;20237;-62
2022/01/05 09:50:03;;;;;;;19.70;4.53;;;;;;;;;;4955917;28;20227;-61
2022/01/05 09:52:29;;;;;;;16.77;4.10;;;;;;;;;;4956774;28;20572;-62
2022/01/05 09:54:54;;;;;;;15.57;4.67;;;;;;;;;;4971652;28;20210;-62
2022/01/05 09:57:21;;;;;;;19.70;4.70;;;;;;;;;;4955994;28;20225;-61
2022/01/05 09:59:46;;;;;;;13.87;3.93;;;;;;;;;;4956827;28;20225;-62
2022/01/05 10:02:12;;;;;;;13.13;3.70;;;;;;;;;;4955916;28;20218;-60
2022/01/05 10:04:37;;;;;;;10.27;2.63;;;;;;;;;;4955943;28;20210;-61
2022/01/05 10:07:03;;;;;;;13.90;2.70;;;;;;;;;;4956417;28;20286;-60
2022/01/05 10:09:29;;;;;;;17.17;2.73;;;;;;;;;;4956430;28;20704;-60
2022/01/05 10:11:54;;;;;;;16.03;2.67;;;;;;;;;;4955983;28;20574;-61
2022/01/05 10:14:19;;;;;;;22.70;6.33;;;;;;;;;;4970989;28;20221;-61
2022/01/05 10:17:04;;;;;;;15.30;3.40;;;;;;;;;;4945582;28;20306;-61
2022/01/05 10:19:29;;;;;;;25.67;8.37;;;;;;;;;;4936501;28;20219;-61
2022/01/05 10:21:56;;;;;;;23.87;9.27;;;;;;;;;;4970679;28;20206;-61
2022/01/05 10:24:40;;;;;;;17.57;6.37;;;;;;;;;;4955964;28;20557;-61
2022/01/05 10:27:06;;;;;;;16.07;4.43;;;;;;;;;;4955232;28;20223;-61
2022/01/05 10:29:31;;;;;;;24.40;8.13;;;;;;;;;;4970684;28;20214;-61
2022/01/05 10:31:56;;;;;;;19.53;5.23;;;;;;;;;;4955280;28;20362;-61
2022/01/05 10:34:23;;;;;;;17.47;4.40;;;;;;;;;;4955878;28;20210;-61
2022/01/05 10:36:50;;;;;;;23.40;4.63;;;;;;;;;;4956169;28;20202;-61
2022/01/05 10:39:17;;;;;;;22.73;3.90;;;;;;;;;;4954965;28;20694;-61
2022/01/05 10:41:44;;;;;;;23.67;5.23;;;;;;;;;;4956186;28;20265;-61
2022/01/05 10:44:14;;;;;;;18.80;4.87;;;;;;;;;;4955618;28;20211;-61
2022/01/05 10:46:42;;;;;;;35.70;12.27;;;;;;;;;;4968532;28;20224;-61
2022/01/05 10:49:07;;;;;;;58.60;19.07;;;;;;;;;;4955091;28;20317;-61
2022/01/05 10:51:33;;;;;;;47.10;15.83;;;;;;;;;;4955753;28;20622;-61
2022/01/05 10:54:09;;;;;;;64.53;23.77;;;;;;;;;;4955123;28;20202;-61
2022/01/05 10:56:34;;;;;;;38.00;11.97;;;;;;;;;;4955579;28;20224;-60
2022/01/05 10:58:59;;;;;;;21.77;4.07;;;;;;;;;;4955569;28;20211;-60
2022/01/05 11:01:31;;;;;;;15.63;4.20;;;;;;;;;;4953934;28;20265;-60
2022/01/05 11:03:56;;;;;;;17.93;3.20;;;;;;;;;;4955673;28;20218;-61
2022/01/05 11:06:21;;;;;;;14.87;2.53;;;;;;;;;;4955193;28;20214;-62
2022/01/05 11:08:55;;;;;;;13.50;2.57;;;;;;;;;;4954701;28;20717;-61
2022/01/05 11:11:29;;;;;;;15.83;2.70;;;;;;;;;;4955071;28;22973;-61
2022/01/05 11:13:54;;;;;;;15.53;2.73;;;;;;;;;;4955460;28;20601;-61
2022/01/05 11:16:27;;;;;;;11.07;2.07;;;;;;;;;;4946330;28;20314;-62
2022/01/05 11:19:10;;;;;;;9.17;2.00;;;;;;;;;;4950734;29;20222;-61
2022/01/05 11:21:37;;;;;;;13.73;2.50;;;;;;;;;;4937153;29;20219;-61
2022/01/05 11:24:02;;;;;;;11.87;2.27;;;;;;;;;;4954979;28;20218;-61
2022/01/05 11:26:27;;;;;;;13.35;2.00;;;;;;;;;;4955151;28;20219;-61
2022/01/05 11:28:53;;;;;;;12.40;2.93;;;;;;;;;;4954262;28;20234;-60
2022/01/05 11:31:18;;;;;;;16.30;3.60;;;;;;;;;;4954408;28;20238;-60
2022/01/05 11:33:43;;;;;;;19.17;3.27;;;;;;;;;;4955130;28;20621;-61
2022/01/05 11:36:08;;;;;;;16.33;3.07;;;;;;;;;;4968628;28;20261;-60
2022/01/05 11:38:34;;;;;;;14.57;2.30;;;;;;;;;;4954971;28;20249;-60
2022/01/05 11:40:59;;;;;;;13.30;2.93;;;;;;;;;;4954914;28;20214;-62
2022/01/05 11:43:27;;;;;;;16.67;2.90;;;;;;;;;;4953485;28;20210;-60
2022/01/05 11:45:52;;;;;;;15.80;2.05;;;;;;;;;;4954735;28;20214;-61
2022/01/05 11:48:25;;;;;;;14.07;2.40;;;;;;;;;;4950732;28;20285;-60
2022/01/05 11:50:51;;;;;;;10.47;2.20;;;;;;;;;;4968796;28;20230;-60
2022/01/05 11:53:17;;;;;;;15.30;2.10;;;;;;;;;;4954478;28;20326;-60
2022/01/05 11:56:05;;;;;;;14.30;2.60;;;;;;;;;;4969331;28;20280;-60
2022/01/05 11:58:31;;;;;;;14.13;2.13;;;;;;;;;;4952988;28;20210;-58
2022/01/05 12:01:15;;;;;;;13.07;2.53;;;;;;;;;;4954595;28;20215;-59
2022/01/05 12:04:03;;;;;;;16.30;2.78;;;;;;;;;;4952667;28;20308;-60
2022/01/05 12:06:31;;;;;;;16.48;2.60;;;;;;;;;;4954405;28;20233;-60
2022/01/05 12:08:57;;;;;;;19.10;2.67;;;;;;;;;;4954344;28;20599;-60
2022/01/05 12:11:27;;;;;;;14.85;2.40;;;;;;;;;;4953343;28;20211;-60
2022/01/05 12:13:52;;;;;;;18.20;2.87;;;;;;;;;;4954579;28;20209;-60
2022/01/05 12:16:17;;;;;;;12.87;3.00;;;;;;;;;;4951622;28;20210;-60
2022/01/05 12:18:43;;;;;;;17.23;2.45;;;;;;;;;;4953416;28;20217;-60
2022/01/05 12:21:18;;;;;;;13.43;2.47;;;;;;;;;;4953891;28;20221;-60
2022/01/05 12:23:49;;;;;;;12.90;2.07;;;;;;;;;;4969113;28;20206;-60
2022/01/05 12:26:14;;;;;;;12.57;2.30;;;;;;;;;;4953311;28;20217;-59
2022/01/05 12:28:48;;;;;;;14.70;2.97;;;;;;;;;;4954015;28;20226;-60
2022/01/05 12:31:14;;;;;;;14.23;2.43;;;;;;;;;;4953609;28;20309;-61
2022/01/05 12:33:42;;;;;;;19.67;2.83;;;;;;;;;;4953652;28;20695;-60
2022/01/05 12:36:08;;;;;;;15.40;2.60;;;;;;;;;;4953904;28;20227;-60
2022/01/05 12:38:47;;;;;;;19.03;5.57;;;;;;;;;;4953613;28;20214;-60
2022/01/05 12:41:22;;;;;;;27.50;11.50;;;;;;;;;;4953705;28;20277;-60
2022/01/05 12:43:47;;;;;;;16.17;3.20;;;;;;;;;;4954152;28;20218;-60
2022/01/05 12:46:14;;;;;;;15.80;3.90;;;;;;;;;;4952772;28;20237;-60
2022/01/05 12:48:43;;;;;;;17.77;4.40;;;;;;;;;;4954104;28;20599;-60
2022/01/05 12:51:12;;;;;;;15.80;6.22;;;;;;;;;;4953652;28;20281;-60
2022/01/05 12:53:48;;;;;;;18.63;3.33;;;;;;;;;;4951128;28;20297;-60
2022/01/05 12:56:18;;;;;;;19.63;3.58;;;;;;;;;;4966072;28;20236;-60
2022/01/05 12:58:43;;;;;;;19.27;3.00;;;;;;;;;;4973215;28;20206;-60
2022/01/05 13:01:08;;;;;;;20.55;4.38;;;;;;;;;;4971761;28;20301;-61
2022/01/05 13:03:33;;;;;;;17.93;2.80;;;;;;;;;;4987915;28;20210;-61
2022/01/05 13:06:11;;;;;;;18.57;3.43;;;;;;;;;;4973421;28;20689;-61
2022/01/05 13:08:37;;;;;;;19.27;3.70;;;;;;;;;;4972055;28;20233;-62
2022/01/05 13:11:03;;;;;;;22.13;6.47;;;;;;;;;;4976478;28;20296;-61
2022/01/05 13:13:29;;;;;;;20.08;3.72;;;;;;;;;;4970523;28;20211;-62
2022/01/05 13:16:05;;;;;;;19.60;3.97;;;;;;;;;;4954621;28;20221;-61
2022/01/05 13:18:30;;;;;;;17.70;3.00;;;;;;;;;;4956563;28;20238;-62
2022/01/05 13:20:56;;;;;;;19.95;3.70;;;;;;;;;;4956879;28;20238;-60
2022/01/05 13:23:21;;;;;;;22.63;3.50;;;;;;;;;;4957041;28;20671;-60
2022/01/05 13:25:47;;;;;;;21.20;4.27;;;;;;;;;;4957556;28;20215;-60
2022/01/05 13:28:12;;;;;;;18.27;4.90;;;;;;;;;;4956008;28;20633;-60
2022/01/05 13:30:37;;;;;;;21.40;5.03;;;;;;;;;;4957005;28;20639;-61
2022/01/05 13:33:03;;;;;;;19.00;3.33;;;;;;;;;;4956879;28;20218;-61
2022/01/05 13:35:37;;;;;;;21.57;4.50;;;;;;;;;;4954359;28;20622;-61
2022/01/05 13:38:02;;;;;;;19.20;4.60;;;;;;;;;;4956940;28;20207;-61
2022/01/05 13:40:29;;;;;;;17.70;3.00;;;;;;;;;;4957128;28;20326;-63
2022/01/05 13:42:58;;;;;;;15.30;3.93;;;;;;;;;;4956453;28;20215;-61
2022/01/05 13:45:24;;;;;;;13.27;3.17;;;;;;;;;;4956550;28;20272;-60
2022/01/05 13:47:50;;;;;;;13.87;4.20;;;;;;;;;;4956901;28;20435;-59
2022/01/05 13:50:15;;;;;;;10.47;2.17;;;;;;;;;;4955210;28;20249;-60
2022/01/05 13:52:41;;;;;;;10.57;2.92;;;;;;;;;;4956960;28;20232;-60
2022/01/05 13:55:07;;;;;;;13.05;2.50;;;;;;;;;;4971061;28;20215;-61
2022/01/05 13:57:33;;;;;;;20.30;3.38;;;;;;;;;;4950393;28;20219;-61
2022/01/05 13:59:59;;;;;;;17.23;2.93;;;;;;;;;;4956550;28;20218;-61
2022/01/05 14:02:25;;;;;;;23.13;9.53;;;;;;;;;;4947692;28;20278;-61
2022/01/05 14:04:52;;;;;;;20.13;5.35;;;;;;;;;;4922742;28;20588;-61
2022/01/05 14:07:18;;;;;;;19.98;4.72;;;;;;;;;;4937176;29;20302;-60
2022/01/05 14:09:43;;;;;;;24.23;7.77;;;;;;;;;;4951884;29;20235;-61
2022/01/05 14:12:27;;;;;;;22.53;3.27;;;;;;;;;;4942970;28;20682;-60
2022/01/05 14:14:56;;;;;;;21.73;4.65;;;;;;;;;;4956537;28;20214;-61
2022/01/05 14:17:21;;;;;;;18.03;3.10;;;;;;;;;;4954768;28;20217;-61
2022/01/05 14:19:47;;;;;;;18.70;3.67;;;;;;;;;;4956250;28;20215;-60
2022/01/05 14:22:17;;;;;;;24.17;6.30;;;;;;;;;;4956089;28;20211;-60
2022/01/05 14:24:45;;;;;;;24.23;5.20;;;;;;;;;;4955224;28;20674;-60
2022/01/05 14:27:18;;;;;;;25.80;4.63;;;;;;;;;;4955879;28;20214;-60